createdAt,value
2016-06-03T00:00:02.326Z,77.2
2016-06-03T00:00:12.326Z,77.1
2016-06-03T00:00:22.341Z,76.7
2016-06-03T00:00:32.310Z,76.8
2016-06-03T00:00:42.138Z,76.8
2016-06-03T00:00:52.312Z,76.8
2016-06-03T00:01:02.343Z,76.7
2016-06-03T00:01:12.281Z,76.8
2016-06-03T00:01:22.281Z,76.8
2016-06-03T00:01:32.328Z,77
2016-06-03T00:01:42.343Z,76.9
2016-06-03T00:01:52.299Z,77.2
2016-06-03T00:02:02.299Z,77.7
2016-06-03T00:02:12.299Z,77.8
2016-06-03T00:02:22.299Z,77.4
2016-06-03T00:02:32.315Z,77.5
2016-06-03T00:02:42.284Z,77.9
2016-06-03T00:02:52.271Z,77.3
2016-06-03T00:03:02.287Z,77.5
2016-06-03T00:03:12.271Z,77.4
2016-06-03T00:03:22.568Z,77.5
2016-06-03T00:03:32.271Z,77.2
2016-06-03T00:03:42.318Z,77.5
2016-06-03T00:03:52.257Z,77.5
2016-06-03T00:04:02.539Z,77.6
2016-06-03T00:04:12.242Z,77.6
2016-06-03T00:04:22.273Z,77.8
2016-06-03T00:04:32.273Z,77.9
2016-06-03T00:04:42.257Z,77.5
2016-06-03T00:04:52.244Z,77.3
2016-06-03T00:05:02.463Z,77.4
2016-06-03T00:05:12.322Z,77.8
2016-06-03T00:05:22.244Z,77.3
2016-06-03T00:05:32.259Z,77.5
2016-06-03T00:05:42.509Z,77.8
2016-06-03T00:05:53.731Z,77.5
2016-06-03T00:06:03.559Z,77.3
2016-06-03T00:06:13.559Z,77.3
2016-06-03T00:06:23.544Z,77.7
2016-06-03T00:06:33.419Z,78
2016-06-03T00:06:42.953Z,78
2016-06-03T00:06:53.375Z,78.1
2016-06-03T00:07:03.375Z,77.6
2016-06-03T00:07:13.406Z,77.3
2016-06-03T00:07:23.375Z,77.9
2016-06-03T00:07:32.281Z,77.5
2016-06-03T00:07:42.234Z,77.8
2016-06-03T00:07:52.190Z,77.2
2016-06-03T00:08:02.190Z,77
2016-06-03T00:08:12.190Z,77.3
2016-06-03T00:08:22.237Z,76.6
2016-06-03T00:08:32.175Z,77.1
2016-06-03T00:08:42.222Z,77.2
2016-06-03T00:08:52.177Z,77.5
2016-06-03T00:09:02.208Z,77.7
2016-06-03T00:09:12.177Z,77.2
2016-06-03T00:09:22.177Z,77.4
2016-06-03T00:09:32.302Z,77
2016-06-03T00:09:41.724Z,77.2
2016-06-03T00:09:52.195Z,77.4
2016-06-03T00:10:02.008Z,76.8
2016-06-03T00:10:12.055Z,76.9
2016-06-03T00:10:22.945Z,77
2016-06-03T00:10:32.336Z,77.3
2016-06-03T00:10:42.086Z,77.2
2016-06-03T00:10:52.932Z,77.3
2016-06-03T00:11:02.135Z,77.3
2016-06-03T00:11:12.135Z,77.2
2016-06-03T00:11:22.150Z,77.3
2016-06-03T00:11:32.150Z,77
2016-06-03T00:11:42.135Z,76.9
2016-06-03T00:11:52.139Z,77
2016-06-03T00:12:02.123Z,77.4
2016-06-03T00:12:12.139Z,77.8
2016-06-03T00:12:22.139Z,77.6
2016-06-03T00:12:32.123Z,77.5
2016-06-03T00:12:42.139Z,77.7
2016-06-03T00:12:52.141Z,77.5
2016-06-03T00:13:02.156Z,77.7
2016-06-03T00:13:12.141Z,77.7
2016-06-03T00:13:22.110Z,77.8
2016-06-03T00:13:32.110Z,77.3
2016-06-03T00:13:42.125Z,77.6
2016-06-03T00:13:52.113Z,77.9
2016-06-03T00:14:02.128Z,77.7
2016-06-03T00:14:12.097Z,77.8
2016-06-03T00:14:22.097Z,77.5
2016-06-03T00:14:32.097Z,77.2
2016-06-03T00:14:42.159Z,76.9
2016-06-03T00:14:52.116Z,76.8
2016-06-03T00:15:02.084Z,77
2016-06-03T00:15:12.084Z,77.1
2016-06-03T00:15:22.084Z,76.8
2016-06-03T00:15:32.069Z,76.8
2016-06-03T00:15:42.100Z,76.7
2016-06-03T00:15:52.149Z,76.8
2016-06-03T00:16:02.149Z,76.9
2016-06-03T00:16:12.086Z,77
2016-06-03T00:16:22.055Z,77
2016-06-03T00:16:32.055Z,77.3
2016-06-03T00:16:41.930Z,77.3
2016-06-03T00:16:52.074Z,77.1
2016-06-03T00:17:02.042Z,77.2
2016-06-03T00:17:12.074Z,76.9
2016-06-03T00:17:22.121Z,76.8
2016-06-03T00:17:32.058Z,77.1
2016-06-03T00:17:42.042Z,76.8
2016-06-03T00:17:52.045Z,76.8
2016-06-03T00:18:02.077Z,76.9
2016-06-03T00:18:12.061Z,76.8
2016-06-03T00:18:22.030Z,77
2016-06-03T00:18:31.889Z,76.8
2016-06-03T00:18:42.092Z,76.8
2016-06-03T00:18:51.877Z,77.1
2016-06-03T00:19:02.017Z,77.1
2016-06-03T00:19:12.017Z,76.5
2016-06-03T00:19:22.064Z,76.8
2016-06-03T00:19:32.033Z,76.8
2016-06-03T00:19:42.017Z,77.2
2016-06-03T00:19:52.005Z,77
2016-06-03T00:20:02.036Z,76.9
2016-06-03T00:20:12.020Z,76.8
2016-06-03T00:20:21.989Z,76.8
2016-06-03T00:20:32.005Z,76.8
2016-06-03T00:20:41.880Z,76.8
2016-06-03T00:20:52.006Z,76.7
2016-06-03T00:21:01.990Z,77.2
2016-06-03T00:21:11.990Z,76.8
2016-06-03T00:21:21.990Z,77.5
2016-06-03T00:21:31.990Z,77.4
2016-06-03T00:21:41.990Z,77.2
2016-06-03T00:21:51.994Z,77.6
2016-06-03T00:22:02.041Z,76.8
2016-06-03T00:22:11.963Z,77.2
2016-06-03T00:22:21.978Z,77.1
2016-06-03T00:22:31.963Z,77.3
2016-06-03T00:22:42.056Z,76.8
2016-06-03T00:22:51.980Z,77.2
2016-06-03T00:23:01.996Z,77.1
2016-06-03T00:23:11.949Z,77
2016-06-03T00:23:21.980Z,76.9
2016-06-03T00:23:31.965Z,77.5
2016-06-03T00:23:41.965Z,77.9
2016-06-03T00:23:51.968Z,77.4
2016-06-03T00:24:01.968Z,77.8
2016-06-03T00:24:11.796Z,76.9
2016-06-03T00:24:21.952Z,77.4
2016-06-03T00:24:31.811Z,77
2016-06-03T00:24:41.999Z,77.1
2016-06-03T00:24:52.267Z,77.2
2016-06-03T00:25:01.954Z,77.5
2016-06-03T00:25:12.970Z,77.2
2016-06-03T00:25:22.642Z,77.5
2016-06-03T00:25:31.985Z,77
2016-06-03T00:25:41.923Z,77
2016-06-03T00:25:51.941Z,77.2
2016-06-03T00:26:01.973Z,77
2016-06-03T00:26:11.910Z,77
2016-06-03T00:26:21.910Z,77
2016-06-03T00:26:31.957Z,76.8
2016-06-03T00:26:41.957Z,77.7
2016-06-03T00:26:51.913Z,77.3
2016-06-03T00:27:01.757Z,77.7
2016-06-03T00:27:11.913Z,77.8
2016-06-03T00:27:21.741Z,77.4
2016-06-03T00:27:31.944Z,77.7
2016-06-03T00:27:41.913Z,77.4
2016-06-03T00:27:51.900Z,77.5
2016-06-03T00:28:01.915Z,77.5
2016-06-03T00:28:11.900Z,77.8
2016-06-03T00:28:21.806Z,77.9
2016-06-03T00:28:31.900Z,78
2016-06-03T00:28:41.884Z,77
2016-06-03T00:28:51.872Z,77.2
2016-06-03T00:29:01.966Z,77.2
2016-06-03T00:29:11.872Z,77.8
2016-06-03T00:29:21.888Z,77.4
2016-06-03T00:29:31.888Z,77.9
2016-06-03T00:29:41.966Z,77.7
2016-06-03T00:29:51.890Z,77.1
2016-06-03T00:30:01.921Z,77.3
2016-06-03T00:30:11.859Z,77.6
2016-06-03T00:30:21.890Z,77.2
2016-06-03T00:30:31.859Z,77.5
2016-06-03T00:30:41.734Z,77.9
2016-06-03T00:30:51.861Z,77.2
2016-06-03T00:31:06.720Z,77.4
2016-06-03T00:31:14.423Z,77.3
2016-06-03T00:31:24.408Z,76.9
2016-06-03T00:31:34.408Z,77
2016-06-03T00:31:44.412Z,77
2016-06-03T00:31:54.427Z,76.8
2016-06-03T00:32:04.396Z,77.1
2016-06-03T00:32:14.427Z,77.2
2016-06-03T00:32:24.427Z,77.3
2016-06-03T00:32:34.458Z,76.4
2016-06-03T00:32:44.414Z,76.2
2016-06-03T00:32:54.382Z,76.4
2016-06-03T00:33:04.398Z,76.5
2016-06-03T00:33:14.414Z,76.5
2016-06-03T00:33:24.382Z,76.5
2016-06-03T00:33:34.382Z,76.4
2016-06-03T00:33:44.417Z,76.3
2016-06-03T00:33:54.401Z,75.8
2016-06-03T00:34:04.385Z,76.3
2016-06-03T00:34:14.370Z,76.4
2016-06-03T00:34:24.354Z,77.1
2016-06-03T00:34:34.370Z,77
2016-06-03T00:34:44.372Z,76.8
2016-06-03T00:34:54.372Z,76.7
2016-06-03T00:35:04.356Z,77.3
2016-06-03T00:35:14.372Z,76.6
2016-06-03T00:35:24.356Z,76.5
2016-06-03T00:35:34.653Z,76.5
2016-06-03T00:35:44.343Z,76.5
2016-06-03T00:35:54.422Z,76.2
2016-06-03T00:36:04.343Z,77.1
2016-06-03T00:36:14.359Z,77
2016-06-03T00:36:24.328Z,76.3
2016-06-03T00:36:34.437Z,76.4
2016-06-03T00:36:44.331Z,76.4
2016-06-03T00:36:54.331Z,76.1
2016-06-03T00:37:04.346Z,76.6
2016-06-03T00:37:14.331Z,76.4
2016-06-03T00:37:24.331Z,76.5
2016-06-03T00:37:34.331Z,76.5
2016-06-03T00:37:44.317Z,76.6
2016-06-03T00:37:54.395Z,76.3
2016-06-03T00:38:04.317Z,76
2016-06-03T00:38:14.302Z,75.9
2016-06-03T00:38:24.317Z,75.7
2016-06-03T00:38:34.380Z,75.8
2016-06-03T00:38:44.305Z,75.6
2016-06-03T00:38:54.351Z,75.6
2016-06-03T00:39:04.305Z,75.9
2016-06-03T00:39:14.305Z,76.3
2016-06-03T00:39:24.289Z,76.2
2016-06-03T00:39:34.601Z,75.7
2016-06-03T00:39:44.167Z,75.8
2016-06-03T00:39:54.308Z,75.9
2016-06-03T00:40:04.292Z,76.1
2016-06-03T00:40:14.886Z,75.9
2016-06-03T00:40:24.308Z,76.7
2016-06-03T00:40:34.714Z,76.5
2016-06-03T00:40:44.967Z,76.5
2016-06-03T00:40:54.311Z,76.3
2016-06-03T00:41:04.264Z,76.3
2016-06-03T00:41:14.404Z,75.9
2016-06-03T00:41:25.779Z,75.8
2016-06-03T00:41:35.670Z,75.9
2016-06-03T00:41:45.517Z,76.3
2016-06-03T00:41:55.251Z,75.7
2016-06-03T00:42:05.173Z,76.3
2016-06-03T00:42:15.564Z,76.7
2016-06-03T00:42:25.610Z,76.3
2016-06-03T00:42:35.517Z,76.4
2016-06-03T00:42:45.081Z,76.4
2016-06-03T00:42:55.628Z,76
2016-06-03T00:43:05.347Z,76.1
2016-06-03T00:43:14.612Z,75.8
2016-06-03T00:43:24.237Z,75.8
2016-06-03T00:43:34.316Z,75.5
2016-06-03T00:43:44.239Z,75.5
2016-06-03T00:43:54.224Z,75.5
2016-06-03T00:44:04.224Z,75.4
2016-06-03T00:44:14.286Z,75.6
2016-06-03T00:44:24.239Z,75.6
2016-06-03T00:44:34.224Z,76
2016-06-03T00:44:44.211Z,75.9
2016-06-03T00:44:54.227Z,75.7
2016-06-03T00:45:04.227Z,75.6
2016-06-03T00:45:14.289Z,75.9
2016-06-03T00:45:24.196Z,75.7
2016-06-03T00:45:34.242Z,75.5
2016-06-03T00:45:44.214Z,75.6
2016-06-03T00:45:54.199Z,75.9
2016-06-03T00:46:04.199Z,75.8
2016-06-03T00:46:14.277Z,76
2016-06-03T00:46:24.199Z,75.8
2016-06-03T00:46:34.199Z,75.8
2016-06-03T00:46:44.185Z,76.2
2016-06-03T00:46:54.279Z,76.4
2016-06-03T00:47:04.201Z,76.4
2016-06-03T00:47:14.232Z,76.5
2016-06-03T00:47:24.185Z,76.5
2016-06-03T00:47:34.060Z,76.6
2016-06-03T00:47:44.173Z,76.4
2016-06-03T00:47:54.173Z,76.3
2016-06-03T00:48:04.173Z,76
2016-06-03T00:48:14.220Z,76.3
2016-06-03T00:48:24.017Z,76.5
2016-06-03T00:48:34.189Z,76.3
2016-06-03T00:48:44.160Z,76.4
2016-06-03T00:48:54.082Z,77.3
2016-06-03T00:49:04.160Z,76.3
2016-06-03T00:49:14.144Z,76.5
2016-06-03T00:49:24.207Z,76.4
2016-06-03T00:49:34.222Z,76
2016-06-03T00:49:44.128Z,75.9
2016-06-03T00:49:54.147Z,75.8
2016-06-03T00:50:04.178Z,76.3
2016-06-03T00:50:14.147Z,76.6
2016-06-03T00:50:24.178Z,76.5
2016-06-03T00:50:34.147Z,76.3
2016-06-03T00:50:44.147Z,76
2016-06-03T00:50:54.165Z,76.1
2016-06-03T00:51:04.133Z,76.3
2016-06-03T00:51:14.118Z,76.1
2016-06-03T00:51:24.133Z,76.1
2016-06-03T00:51:34.133Z,76
2016-06-03T00:51:44.118Z,76.6
2016-06-03T00:51:54.152Z,76
2016-06-03T00:52:04.121Z,76.3
2016-06-03T00:52:14.136Z,75.6
2016-06-03T00:52:24.105Z,75.9
2016-06-03T00:52:34.136Z,76.2
2016-06-03T00:52:44.121Z,76.3
2016-06-03T00:52:54.155Z,76.7
2016-06-03T00:53:04.077Z,76.4
2016-06-03T00:53:14.343Z,76
2016-06-03T00:53:24.108Z,76.5
2016-06-03T00:53:34.093Z,76.5
2016-06-03T00:53:43.952Z,76.6
2016-06-03T00:53:54.095Z,75.6
2016-06-03T00:54:04.079Z,76.1
2016-06-03T00:54:14.079Z,76.2
2016-06-03T00:54:24.095Z,75.6
2016-06-03T00:54:34.704Z,75.8
2016-06-03T00:54:44.379Z,75.7
2016-06-03T00:54:53.973Z,75.9
2016-06-03T00:55:04.066Z,75.8
2016-06-03T00:55:13.785Z,75.9
2016-06-03T00:55:24.504Z,75.9
2016-06-03T00:55:33.941Z,75.7
2016-06-03T00:55:44.444Z,75.8
2016-06-03T00:55:54.069Z,75.9
2016-06-03T00:56:04.069Z,75.8
2016-06-03T00:56:14.054Z,75.4
2016-06-03T00:56:23.913Z,75.9
2016-06-03T00:56:34.038Z,75.5
2016-06-03T00:56:44.054Z,75.9
2016-06-03T00:56:54.072Z,75.7
2016-06-03T00:57:04.041Z,75.2
2016-06-03T00:57:14.057Z,75.4
2016-06-03T00:57:24.025Z,74.7
2016-06-03T00:57:34.041Z,74.8
2016-06-03T00:57:44.025Z,74.8
2016-06-03T00:57:54.091Z,74.6
2016-06-03T00:58:04.028Z,74.5
2016-06-03T00:58:14.060Z,75.1
2016-06-03T00:58:24.013Z,74.4
2016-06-03T00:58:34.013Z,75.1
2016-06-03T00:58:44.028Z,74.8
2016-06-03T00:58:54.015Z,74.6
2016-06-03T00:59:04.015Z,74.7
2016-06-03T00:59:14.062Z,75.1
2016-06-03T00:59:23.859Z,75.1
2016-06-03T00:59:34.015Z,74.7
2016-06-03T00:59:43.999Z,75.1
2016-06-03T00:59:54.017Z,74.3
2016-06-03T01:00:03.986Z,75.5
2016-06-03T01:00:14.017Z,75.6
2016-06-03T01:00:23.986Z,75.2
2016-06-03T01:00:34.001Z,75.2
2016-06-03T01:00:43.986Z,75.7
2016-06-03T01:00:53.864Z,75.2
2016-06-03T01:01:04.020Z,75.2
2016-06-03T01:01:14.004Z,75.3
2016-06-03T01:01:23.973Z,75.3
2016-06-03T01:01:33.973Z,74.7
2016-06-03T01:01:43.973Z,74.7
2016-06-03T01:01:53.976Z,75.3
2016-06-03T01:02:03.976Z,75.3
2016-06-03T01:02:14.038Z,75.2
2016-06-03T01:02:23.820Z,75.8
2016-06-03T01:02:33.960Z,75.6
2016-06-03T01:02:43.960Z,75.7
2016-06-03T01:02:54.057Z,75.7
2016-06-03T01:03:03.932Z,75.7
2016-06-03T01:03:13.995Z,75.8
2016-06-03T01:03:23.948Z,75.5
2016-06-03T01:03:33.979Z,75.8
2016-06-03T01:03:43.963Z,75.7
2016-06-03T01:03:54.012Z,75.5
2016-06-03T01:04:03.934Z,75.7
2016-06-03T01:04:13.965Z,75.7
2016-06-03T01:04:23.918Z,75.7
2016-06-03T01:04:33.981Z,76
2016-06-03T01:04:43.981Z,75.3
2016-06-03T01:04:53.921Z,75
2016-06-03T01:05:03.906Z,75.2
2016-06-03T01:05:13.984Z,75.3
2016-06-03T01:05:23.921Z,75.1
2016-06-03T01:05:33.921Z,74.8
2016-06-03T01:05:43.906Z,74.5
2016-06-03T01:05:53.909Z,74.5
2016-06-03T01:06:03.909Z,74.5
2016-06-03T01:06:13.971Z,74.4
2016-06-03T01:06:23.893Z,74.7
2016-06-03T01:06:33.909Z,74.3
2016-06-03T01:06:43.893Z,74.4
2016-06-03T01:06:53.912Z,74.2
2016-06-03T01:07:03.896Z,74.2
2016-06-03T01:07:13.896Z,74.4
2016-06-03T01:07:23.881Z,74.1
2016-06-03T01:07:33.959Z,74.2
2016-06-03T01:07:43.881Z,74.7
2016-06-03T01:07:53.930Z,75.1
2016-06-03T01:08:03.915Z,74.7
2016-06-03T01:08:13.899Z,74.5
2016-06-03T01:08:23.868Z,75.5
2016-06-03T01:08:33.930Z,74.6
2016-06-03T01:08:43.868Z,74.6
2016-06-03T01:08:53.886Z,75.1
2016-06-03T01:09:03.870Z,74.4
2016-06-03T01:09:13.886Z,74.1
2016-06-03T01:09:23.854Z,74.4
2016-06-03T01:09:33.917Z,74.8
2016-06-03T01:09:43.917Z,74.6
2016-06-03T01:09:54.185Z,74.8
2016-06-03T01:10:03.857Z,74.5
2016-06-03T01:10:13.982Z,74.2
2016-06-03T01:10:24.404Z,74.3
2016-06-03T01:10:34.248Z,74.3
2016-06-03T01:10:43.685Z,74.5
2016-06-03T01:10:53.734Z,74.4
2016-06-03T01:11:03.828Z,74.5
2016-06-03T01:11:13.875Z,74.5
2016-06-03T01:11:23.828Z,74.5
2016-06-03T01:11:33.828Z,74.4
2016-06-03T01:11:43.812Z,74.6
2016-06-03T01:11:53.894Z,75.3
2016-06-03T01:12:03.815Z,75.2
2016-06-03T01:12:13.862Z,74.5
2016-06-03T01:12:23.800Z,74.6
2016-06-03T01:12:33.831Z,74.7
2016-06-03T01:12:43.815Z,73.9
2016-06-03T01:12:53.864Z,74.2
2016-06-03T01:13:03.802Z,74.2
2016-06-03T01:13:13.849Z,74.3
2016-06-03T01:13:23.802Z,74.3
2016-06-03T01:13:33.786Z,73.9
2016-06-03T01:13:43.786Z,74.2
2016-06-03T01:13:53.820Z,74.4
2016-06-03T01:14:03.633Z,74.3
2016-06-03T01:14:13.680Z,74.5
2016-06-03T01:14:23.789Z,74.5
2016-06-03T01:14:33.883Z,74.1
2016-06-03T01:14:43.789Z,74.6
2016-06-03T01:14:53.792Z,74.4
2016-06-03T01:15:03.761Z,74.5
2016-06-03T01:15:13.808Z,74.7
2016-06-03T01:15:23.792Z,74.7
2016-06-03T01:15:33.761Z,74.4
2016-06-03T01:15:43.761Z,74.4
2016-06-03T01:15:53.764Z,74.2
2016-06-03T01:16:03.748Z,74.2
2016-06-03T01:16:13.764Z,74.1
2016-06-03T01:16:23.826Z,74
2016-06-03T01:16:33.780Z,74.2
2016-06-03T01:16:43.795Z,73.9
2016-06-03T01:16:53.750Z,74.5
2016-06-03T01:17:03.750Z,74.2
2016-06-03T01:17:13.750Z,74.2
2016-06-03T01:17:23.750Z,74.2
2016-06-03T01:17:33.735Z,74.2
2016-06-03T01:17:43.594Z,74.3
2016-06-03T01:17:53.722Z,74.3
2016-06-03T01:18:03.738Z,74.9
2016-06-03T01:18:13.722Z,74.5
2016-06-03T01:18:23.722Z,74.3
2016-06-03T01:18:33.800Z,74.2
2016-06-03T01:18:43.722Z,74.3
2016-06-03T01:18:53.709Z,74.2
2016-06-03T01:19:03.756Z,74
2016-06-03T01:19:13.772Z,74.3
2016-06-03T01:19:23.569Z,74.3
2016-06-03T01:19:33.709Z,74.6
2016-06-03T01:19:43.694Z,74.5
2016-06-03T01:19:53.758Z,74.5
2016-06-03T01:20:03.711Z,74.8
2016-06-03T01:20:13.696Z,74.7
2016-06-03T01:20:23.696Z,74.1
2016-06-03T01:20:33.758Z,74
2016-06-03T01:20:43.696Z,74
2016-06-03T01:20:53.699Z,74.2
2016-06-03T01:21:03.683Z,73.9
2016-06-03T01:21:13.699Z,74.1
2016-06-03T01:21:23.699Z,74.2
2016-06-03T01:21:33.699Z,74.1
2016-06-03T01:21:43.683Z,74.2
2016-06-03T01:21:53.733Z,74.7
2016-06-03T01:22:03.686Z,74
2016-06-03T01:22:13.671Z,73.8
2016-06-03T01:22:23.671Z,73.9
2016-06-03T01:22:33.671Z,73.9
2016-06-03T01:22:43.530Z,74.8
2016-06-03T01:22:53.658Z,74.6
2016-06-03T01:23:03.533Z,74.6
2016-06-03T01:23:13.658Z,74.1
2016-06-03T01:23:23.674Z,74.3
2016-06-03T01:23:33.658Z,75.2
2016-06-03T01:23:43.674Z,74.6
2016-06-03T01:23:53.644Z,75
2016-06-03T01:24:03.660Z,75.3
2016-06-03T01:24:13.644Z,75.3
2016-06-03T01:24:23.644Z,75.8
2016-06-03T01:24:34.191Z,75.9
2016-06-03T01:24:43.738Z,75.7
2016-06-03T01:24:53.507Z,75.8
2016-06-03T01:25:03.819Z,75.9
2016-06-03T01:25:14.038Z,75.5
2016-06-03T01:25:24.116Z,75.5
2016-06-03T01:25:33.944Z,75
2016-06-03T01:25:43.679Z,75
2016-06-03T01:25:53.494Z,75.3
2016-06-03T01:26:03.619Z,75
2016-06-03T01:26:13.603Z,75.5
2016-06-03T01:26:23.619Z,75.4
2016-06-03T01:26:33.603Z,75.4
2016-06-03T01:26:43.603Z,75.2
2016-06-03T01:26:53.605Z,75.4
2016-06-03T01:27:03.605Z,74.6
2016-06-03T01:27:13.605Z,74.8
2016-06-03T01:27:23.621Z,74.7
2016-06-03T01:27:33.590Z,74.1
2016-06-03T01:27:43.590Z,74.2
2016-06-03T01:27:53.577Z,74.3
2016-06-03T01:28:03.608Z,74.2
2016-06-03T01:28:13.577Z,74.4
2016-06-03T01:28:23.577Z,74.3
2016-06-03T01:28:33.608Z,74.2
2016-06-03T01:28:43.577Z,74.6
2016-06-03T01:28:53.564Z,74.4
2016-06-03T01:29:03.579Z,74
2016-06-03T01:29:13.564Z,74.3
2016-06-03T01:29:23.626Z,74.3
2016-06-03T01:29:33.548Z,74
2016-06-03T01:29:43.548Z,74.4
2016-06-03T01:29:53.582Z,74.5
2016-06-03T01:30:03.582Z,74.4
2016-06-03T01:30:13.535Z,74.5
2016-06-03T01:30:23.551Z,74.5
2016-06-03T01:30:33.535Z,74.4
2016-06-03T01:30:43.551Z,74.1
2016-06-03T01:30:53.554Z,74.1
2016-06-03T01:31:03.538Z,74.1
2016-06-03T01:31:13.538Z,74.2
2016-06-03T01:31:23.585Z,74.3
2016-06-03T01:31:33.554Z,74.2
2016-06-03T01:31:43.523Z,74
2016-06-03T01:31:53.557Z,74
2016-06-03T01:32:03.573Z,74.1
2016-06-03T01:32:13.526Z,74.6
2016-06-03T01:32:23.526Z,74.4
2016-06-03T01:32:33.510Z,74.6
2016-06-03T01:32:43.541Z,74.3
2016-06-03T01:32:53.512Z,74.1
2016-06-03T01:33:03.512Z,74.9
2016-06-03T01:33:13.496Z,75.1
2016-06-03T01:33:23.496Z,74.5
2016-06-03T01:33:33.496Z,75
2016-06-03T01:33:43.496Z,74.4
2016-06-03T01:33:53.499Z,75.1
2016-06-03T01:34:03.468Z,74.4
2016-06-03T01:34:13.499Z,74.5
2016-06-03T01:34:23.531Z,74
2016-06-03T01:34:33.343Z,74.1
2016-06-03T01:34:43.499Z,74.7
2016-06-03T01:34:53.487Z,74.4
2016-06-03T01:35:03.502Z,75.2
2016-06-03T01:35:13.487Z,74.5
2016-06-03T01:35:23.487Z,75
2016-06-03T01:35:33.456Z,74.9
2016-06-03T01:35:43.471Z,74.4
2016-06-03T01:35:53.473Z,74.4
2016-06-03T01:36:03.504Z,74.5
2016-06-03T01:36:13.489Z,74.4
2016-06-03T01:36:23.458Z,74.5
2016-06-03T01:36:33.473Z,74.6
2016-06-03T01:36:43.458Z,74.5
2016-06-03T01:36:53.445Z,74.3
2016-06-03T01:37:03.445Z,74.5
2016-06-03T01:37:13.476Z,74.8
2016-06-03T01:37:23.461Z,74.9
2016-06-03T01:37:33.445Z,75.1
2016-06-03T01:37:43.445Z,74.5
2016-06-03T01:37:53.448Z,74.5
2016-06-03T01:38:03.448Z,74.3
2016-06-03T01:38:13.479Z,74
2016-06-03T01:38:23.432Z,74.1
2016-06-03T01:38:33.464Z,74.1
2016-06-03T01:38:43.432Z,74.6
2016-06-03T01:38:53.262Z,74.7
2016-06-03T01:39:03.434Z,74.7
2016-06-03T01:39:13.450Z,74.4
2016-06-03T01:39:23.434Z,74.3
2016-06-03T01:39:33.434Z,74.7
2016-06-03T01:39:43.122Z,74.6
2016-06-03T01:39:54.063Z,74.3
2016-06-03T01:40:04.001Z,74.4
2016-06-03T01:40:14.235Z,74
2016-06-03T01:40:23.266Z,74.5
2016-06-03T01:40:33.641Z,74.5
2016-06-03T01:40:43.407Z,74.5
2016-06-03T01:40:53.440Z,74.7
2016-06-03T01:41:03.409Z,75.4
2016-06-03T01:41:13.393Z,74.9
2016-06-03T01:41:23.409Z,74.5
2016-06-03T01:41:33.393Z,74.6
2016-06-03T01:41:43.393Z,74.9
2016-06-03T01:41:53.380Z,75.6
2016-06-03T01:42:03.380Z,75.3
2016-06-03T01:42:13.380Z,75.3
2016-06-03T01:42:23.442Z,75
2016-06-03T01:42:33.380Z,74.7
2016-06-03T01:42:43.380Z,74.9
2016-06-03T01:42:53.383Z,75.3
2016-06-03T01:43:03.492Z,75
2016-06-03T01:43:13.367Z,74.6
2016-06-03T01:43:23.383Z,75.1
2016-06-03T01:43:33.336Z,74.5
2016-06-03T01:43:43.336Z,74.5
2016-06-03T01:43:53.355Z,74.1
2016-06-03T01:44:03.370Z,74.3
2016-06-03T01:44:13.355Z,74.1
2016-06-03T01:44:23.355Z,74.1
2016-06-03T01:44:33.339Z,74.4
2016-06-03T01:44:43.339Z,74.2
2016-06-03T01:44:53.358Z,74.4
2016-06-03T01:45:03.342Z,74.2
2016-06-03T01:45:13.342Z,74.3
2016-06-03T01:45:23.326Z,74.3
2016-06-03T01:45:33.311Z,74.3
2016-06-03T01:45:43.326Z,74.5
2016-06-03T01:45:53.344Z,74.6
2016-06-03T01:46:03.328Z,74.7
2016-06-03T01:46:13.328Z,74.4
2016-06-03T01:46:23.438Z,74.5
2016-06-03T01:46:33.313Z,74.1
2016-06-03T01:46:43.328Z,74.1
2016-06-03T01:46:53.159Z,74.1
2016-06-03T01:47:03.316Z,74.7
2016-06-03T01:47:13.331Z,74.8
2016-06-03T01:47:23.300Z,74.2
2016-06-03T01:47:33.284Z,73.8
2016-06-03T01:47:43.378Z,74.1
2016-06-03T01:47:53.303Z,74.1
2016-06-03T01:48:03.287Z,74
2016-06-03T01:48:13.287Z,74
2016-06-03T01:48:23.350Z,74.2
2016-06-03T01:48:33.287Z,74.2
2016-06-03T01:48:43.272Z,74.2
2016-06-03T01:48:53.321Z,73.9
2016-06-03T01:49:03.336Z,74.1
2016-06-03T01:49:13.274Z,74
2016-06-03T01:49:23.258Z,74.1
2016-06-03T01:49:33.274Z,74.2
2016-06-03T01:49:43.133Z,74.2
2016-06-03T01:49:53.277Z,74.1
2016-06-03T01:50:03.261Z,73.9
2016-06-03T01:50:13.261Z,73.7
2016-06-03T01:50:23.292Z,73.5
2016-06-03T01:50:33.246Z,73.4
2016-06-03T01:50:43.246Z,73.3
2016-06-03T01:50:53.264Z,73.5
2016-06-03T01:51:03.264Z,73.3
2016-06-03T01:51:13.249Z,73.8
2016-06-03T01:51:23.249Z,73.8
2016-06-03T01:51:33.264Z,73.5
2016-06-03T01:51:43.280Z,73.6
2016-06-03T01:51:53.080Z,73.8
2016-06-03T01:52:03.252Z,73.6
2016-06-03T01:52:13.236Z,73.9
2016-06-03T01:52:23.283Z,73.9
2016-06-03T01:52:33.267Z,73.8
2016-06-03T01:52:43.220Z,73.9
2016-06-03T01:52:53.223Z,73.9
2016-06-03T01:53:03.223Z,73.8
2016-06-03T01:53:13.239Z,73.6
2016-06-03T01:53:23.223Z,74.1
2016-06-03T01:53:33.223Z,74
2016-06-03T01:53:43.255Z,74.8
2016-06-03T01:53:53.099Z,74.5
2016-06-03T01:54:03.224Z,74
2016-06-03T01:54:13.193Z,74.4
2016-06-03T01:54:23.224Z,74.6
2016-06-03T01:54:33.177Z,75.1
2016-06-03T01:54:43.193Z,74.5
2016-06-03T01:54:52.946Z,74.5
2016-06-03T01:55:03.618Z,74.7
2016-06-03T01:55:13.727Z,74.5
2016-06-03T01:55:24.305Z,74
2016-06-03T01:55:33.134Z,74.3
2016-06-03T01:55:43.055Z,74.2
2016-06-03T01:55:53.496Z,74.3
2016-06-03T01:56:03.199Z,74.4
2016-06-03T01:56:13.183Z,74.5
2016-06-03T01:56:23.183Z,74.8
2016-06-03T01:56:33.168Z,74.3
2016-06-03T01:56:43.168Z,74.2
2016-06-03T01:56:53.186Z,74.1
2016-06-03T01:57:03.171Z,74
2016-06-03T01:57:13.186Z,74.2
2016-06-03T01:57:23.140Z,74.6
2016-06-03T01:57:33.155Z,74.3
2016-06-03T01:57:43.171Z,74.3
2016-06-03T01:57:53.235Z,74.4
2016-06-03T01:58:03.142Z,74.3
2016-06-03T01:58:13.173Z,74
2016-06-03T01:58:23.157Z,74.2
2016-06-03T01:58:33.220Z,74.3
2016-06-03T01:58:43.126Z,74.2
2016-06-03T01:58:53.129Z,73.9
2016-06-03T01:59:03.160Z,74.1
2016-06-03T01:59:13.207Z,73.7
2016-06-03T01:59:23.129Z,74
2016-06-03T01:59:33.113Z,73.9
2016-06-03T01:59:43.113Z,74.1
2016-06-03T01:59:53.226Z,73.6
2016-06-03T02:00:03.148Z,73.5
2016-06-03T02:00:13.116Z,73.5
2016-06-03T02:00:23.101Z,73.5
2016-06-03T02:00:33.132Z,74.1
2016-06-03T02:00:43.101Z,74.2
2016-06-03T02:00:53.104Z,74.3
2016-06-03T02:01:03.135Z,74.1
2016-06-03T02:01:13.119Z,73.6
2016-06-03T02:01:23.104Z,73.8
2016-06-03T02:01:33.088Z,73.4
2016-06-03T02:01:43.104Z,73.3
2016-06-03T02:01:53.121Z,73.5
2016-06-03T02:02:03.090Z,73.6
2016-06-03T02:02:13.106Z,73.5
2016-06-03T02:02:22.934Z,73.5
2016-06-03T02:02:33.121Z,73.5
2016-06-03T02:02:43.059Z,73.8
2016-06-03T02:02:53.078Z,73.9
2016-06-03T02:03:03.078Z,73.9
2016-06-03T02:03:13.125Z,73.9
2016-06-03T02:03:22.938Z,73.9
2016-06-03T02:03:33.078Z,73.9
2016-06-03T02:03:43.078Z,73.5
2016-06-03T02:03:53.080Z,73.6
2016-06-03T02:04:03.049Z,73.5
2016-06-03T02:04:13.049Z,73.9
2016-06-03T02:04:23.065Z,73.8
2016-06-03T02:04:32.909Z,74
2016-06-03T02:04:42.909Z,74.2
2016-06-03T02:04:53.098Z,74.2
2016-06-03T02:05:03.051Z,74.5
2016-06-03T02:05:13.082Z,74.3
2016-06-03T02:05:23.051Z,74.3
2016-06-03T02:05:33.051Z,74.2
2016-06-03T02:05:43.020Z,74.1
2016-06-03T02:05:53.101Z,74.2
2016-06-03T02:06:03.023Z,74.2
2016-06-03T02:06:13.039Z,74.3
2016-06-03T02:06:23.039Z,74.5
2016-06-03T02:06:33.054Z,74.2
2016-06-03T02:06:43.039Z,74.4
2016-06-03T02:06:53.026Z,74.4
2016-06-03T02:07:03.010Z,74.3
2016-06-03T02:07:13.073Z,74.3
2016-06-03T02:07:23.026Z,74.5
2016-06-03T02:07:33.073Z,74.6
2016-06-03T02:07:43.026Z,74.3
2016-06-03T02:07:53.012Z,74.3
2016-06-03T02:08:02.997Z,74.2
2016-06-03T02:08:12.997Z,74
2016-06-03T02:08:23.028Z,74.2
2016-06-03T02:08:33.028Z,74.2
2016-06-03T02:08:42.997Z,73.9
2016-06-03T02:08:53.001Z,74.2
2016-06-03T02:09:03.001Z,74.1
2016-06-03T02:09:13.032Z,74.2
2016-06-03T02:09:22.860Z,74.3
2016-06-03T02:09:33.485Z,74.2
2016-06-03T02:09:43.157Z,74.2
2016-06-03T02:09:52.846Z,74
2016-06-03T02:10:03.112Z,73.8
2016-06-03T02:10:13.425Z,73.6
2016-06-03T02:10:23.471Z,73.8
2016-06-03T02:10:33.565Z,73.7
2016-06-03T02:10:42.971Z,73.5
2016-06-03T02:10:54.162Z,73.8
2016-06-03T02:11:02.959Z,73.8
2016-06-03T02:11:13.037Z,74
2016-06-03T02:11:22.943Z,74.2
2016-06-03T02:11:32.990Z,74
2016-06-03T02:11:42.943Z,74.1
2016-06-03T02:11:52.945Z,74
2016-06-03T02:12:02.945Z,74.6
2016-06-03T02:12:12.992Z,74.7
2016-06-03T02:12:22.961Z,74
2016-06-03T02:12:33.023Z,74.1
2016-06-03T02:12:42.945Z,74.1
2016-06-03T02:12:52.870Z,73.9
2016-06-03T02:13:02.933Z,73.9
2016-06-03T02:13:13.026Z,74
2016-06-03T02:13:22.917Z,73.9
2016-06-03T02:13:32.917Z,74
2016-06-03T02:13:42.823Z,73.6
2016-06-03T02:13:52.998Z,73.8